createdAt,value
2018-07-17T00:01:15.957Z,18.56
2018-07-17T00:03:44.576Z,18.73
2018-07-17T00:06:14.644Z,18.81
2018-07-17T00:08:43.343Z,18.81
2018-07-17T00:11:13.496Z,18.86
2018-07-17T00:13:42.604Z,18.94
2018-07-17T00:16:11.168Z,19.07
2018-07-17T00:18:39.833Z,19.05
2018-07-17T00:21:10.903Z,18.99
2018-07-17T00:23:39.484Z,18.87
2018-07-17T00:26:08.112Z,18.84
2018-07-17T00:28:36.666Z,18.81
2018-07-17T00:31:05.763Z,18.83
2018-07-17T00:33:34.389Z,18.75
2018-07-17T00:36:02.964Z,18.72
2018-07-17T00:38:31.564Z,18.86
2018-07-17T00:41:00.125Z,18.90
2018-07-17T00:43:28.716Z,18.51
2018-07-17T00:45:57.650Z,18.28
2018-07-17T00:48:26.248Z,18.34
2018-07-17T00:50:54.844Z,18.44
2018-07-17T00:53:23.415Z,18.54
2018-07-17T00:55:51.953Z,18.61
2018-07-17T00:58:20.524Z,18.66
2018-07-17T01:00:48.159Z,18.58
2018-07-17T01:03:24.662Z,18.50
2018-07-17T01:05:58.495Z,18.47
2018-07-17T01:08:32.281Z,18.50
2018-07-17T01:11:06.148Z,18.48
2018-07-17T01:14:06.894Z,18.46
2018-07-17T01:16:35.664Z,18.41
2018-07-17T01:19:04.241Z,18.39
2018-07-17T01:21:32.884Z,18.32
2018-07-17T01:24:01.520Z,18.20
2018-07-17T01:26:30.152Z,18.23
2018-07-17T01:28:58.792Z,18.27
2018-07-17T01:31:27.453Z,18.27
2018-07-17T01:33:56.017Z,18.20
2018-07-17T01:36:24.570Z,18.11
2018-07-17T01:38:53.160Z,18.00
2018-07-17T01:41:21.761Z,18.01
2018-07-17T01:43:50.413Z,18.09
2018-07-17T01:46:19.153Z,17.92
2018-07-17T01:48:47.802Z,17.89
2018-07-17T01:51:16.415Z,17.89
2018-07-17T01:53:45.068Z,17.89
2018-07-17T01:56:13.629Z,17.91
2018-07-17T01:58:42.323Z,17.93
2018-07-17T02:01:10.971Z,17.92
2018-07-17T02:03:39.677Z,17.93
2018-07-17T02:06:09.539Z,17.99
2018-07-17T02:08:38.479Z,17.92
2018-07-17T02:11:07.152Z,17.78
2018-07-17T02:13:35.703Z,17.77
2018-07-17T02:16:04.319Z,17.78
2018-07-17T02:18:32.911Z,17.87
2018-07-17T02:21:01.836Z,17.81
2018-07-17T02:23:30.401Z,17.81
2018-07-17T02:25:59.060Z,17.85
2018-07-17T02:28:27.610Z,17.92
2018-07-17T02:30:56.218Z,17.92
2018-07-17T02:33:24.794Z,17.87
2018-07-17T02:35:53.376Z,17.87
2018-07-17T02:38:21.949Z,17.85
2018-07-17T02:40:50.684Z,17.81
2018-07-17T02:43:19.213Z,17.82
2018-07-17T02:45:47.791Z,17.85
2018-07-17T02:48:16.413Z,17.87
2018-07-17T02:50:45.014Z,17.94
2018-07-17T02:53:13.799Z,17.86
2018-07-17T02:55:42.786Z,17.80
2018-07-17T02:58:11.355Z,17.81
2018-07-17T03:00:40.432Z,17.73
2018-07-17T03:03:09.198Z,17.83
2018-07-17T03:05:37.766Z,17.80
2018-07-17T03:08:06.361Z,17.78
2018-07-17T03:10:34.931Z,17.64
2018-07-17T03:13:03.506Z,17.65
2018-07-17T03:15:32.300Z,17.56
2018-07-17T03:18:00.872Z,17.64
2018-07-17T03:20:29.719Z,17.59
2018-07-17T03:22:58.360Z,17.61
2018-07-17T03:25:27.113Z,17.61
2018-07-17T03:27:55.659Z,17.68
2018-07-17T03:30:24.552Z,17.77
2018-07-17T03:32:53.159Z,17.77
2018-07-17T03:35:21.713Z,17.83
2018-07-17T03:37:50.276Z,17.86
2018-07-17T03:40:18.881Z,17.84
2018-07-17T03:42:47.628Z,17.80
2018-07-17T03:45:16.208Z,17.68
2018-07-17T03:47:44.753Z,17.77
2018-07-17T03:50:13.337Z,17.70
2018-07-17T03:52:41.940Z,17.74
2018-07-17T03:55:14.143Z,17.64
2018-07-17T03:57:42.956Z,17.47
2018-07-17T04:00:11.556Z,17.53
2018-07-17T04:02:40.190Z,17.50
2018-07-17T04:05:08.734Z,17.48
2018-07-17T04:07:38.986Z,17.40
2018-07-17T04:10:07.606Z,17.54
2018-07-17T04:12:36.325Z,17.54
2018-07-17T04:15:04.968Z,17.48
2018-07-17T04:17:33.517Z,17.54
2018-07-17T04:20:02.075Z,17.55
2018-07-17T04:22:30.648Z,17.55
2018-07-17T04:24:59.194Z,17.71
2018-07-17T04:27:28.192Z,17.78
2018-07-17T04:29:56.799Z,17.83
2018-07-17T04:32:25.384Z,17.91
2018-07-17T04:34:53.983Z,17.96
2018-07-17T04:37:22.969Z,17.99
2018-07-17T04:39:51.579Z,18.05
2018-07-17T04:42:20.738Z,18.09
2018-07-17T04:44:49.317Z,18.23
2018-07-17T04:47:17.933Z,18.22
2018-07-17T04:49:46.485Z,18.29
2018-07-17T04:52:15.091Z,18.30
2018-07-17T04:54:43.765Z,18.28
2018-07-17T04:57:12.683Z,18.27
2018-07-17T04:59:41.454Z,18.25
2018-07-17T05:02:10.162Z,18.29
2018-07-17T05:04:38.744Z,18.23
2018-07-17T05:07:07.332Z,18.30
2018-07-17T05:09:35.922Z,18.42
2018-07-17T05:12:04.534Z,18.53
2018-07-17T05:14:33.079Z,18.57
2018-07-17T05:17:01.732Z,18.64
2018-07-17T05:19:30.325Z,18.88
2018-07-17T05:21:58.857Z,18.92
2018-07-17T05:24:27.450Z,18.98
2018-07-17T05:26:56.071Z,18.90
2018-07-17T05:29:26.260Z,19.01
2018-07-17T05:31:54.851Z,19.07
2018-07-17T05:34:23.594Z,19.14
2018-07-17T05:36:52.209Z,19.23
2018-07-17T05:39:21.030Z,19.32
2018-07-17T05:41:49.758Z,19.36
2018-07-17T05:44:18.545Z,19.21
2018-07-17T05:46:47.127Z,19.12
2018-07-17T05:49:15.664Z,19.23
2018-07-17T05:51:44.246Z,19.36
2018-07-17T05:54:12.795Z,19.46
2018-07-17T05:56:41.368Z,19.39
2018-07-17T05:59:09.961Z,19.44
2018-07-17T06:01:38.593Z,19.42
2018-07-17T06:04:07.245Z,19.52
2018-07-17T06:06:37.268Z,19.51
2018-07-17T06:09:08.009Z,19.67
2018-07-17T06:11:36.569Z,19.78
2018-07-17T06:14:05.165Z,19.67
2018-07-17T06:16:33.741Z,19.33
2018-07-17T06:19:02.594Z,19.65
2018-07-17T06:21:31.216Z,19.75
2018-07-17T06:23:59.782Z,19.81
2018-07-17T06:26:28.531Z,19.80
2018-07-17T06:28:57.324Z,19.91
2018-07-17T06:31:25.891Z,19.92
2018-07-17T06:33:54.476Z,19.97
2018-07-17T06:36:23.137Z,19.83
2018-07-17T06:38:51.831Z,19.69
2018-07-17T06:41:20.333Z,19.88
2018-07-17T06:43:49.117Z,19.91
2018-07-17T06:46:17.852Z,19.79
2018-07-17T06:48:46.672Z,19.90
2018-07-17T06:51:16.192Z,20.02
2018-07-17T06:53:44.792Z,20.05
2018-07-17T06:56:13.401Z,20.13
2018-07-17T06:58:42.066Z,20.05
2018-07-17T07:01:10.789Z,19.99
2018-07-17T07:03:39.377Z,20.07
2018-07-17T07:06:08.038Z,20.05
2018-07-17T07:08:36.661Z,19.90
2018-07-17T07:11:05.919Z,20.13
2018-07-17T07:13:34.935Z,20.23
2018-07-17T07:16:03.567Z,20.28
2018-07-17T07:18:32.165Z,20.33
2018-07-17T07:21:00.756Z,20.42
2018-07-17T07:23:29.590Z,20.42
2018-07-17T07:25:58.159Z,20.54
2018-07-17T07:28:26.744Z,20.50
2018-07-17T07:30:55.350Z,20.54
2018-07-17T07:33:24.591Z,20.62
2018-07-17T07:35:53.122Z,20.65
2018-07-17T07:38:21.672Z,20.61
2018-07-17T07:40:50.267Z,20.44
2018-07-17T07:43:19.251Z,20.38
2018-07-17T07:45:47.786Z,20.64
2018-07-17T07:48:16.448Z,20.78
2018-07-17T07:50:45.154Z,20.90
2018-07-17T07:53:14.369Z,21.00
2018-07-17T07:55:43.386Z,21.05
2018-07-17T07:58:11.884Z,20.94
2018-07-17T08:00:40.610Z,21.14
2018-07-17T08:03:10.533Z,20.67
2018-07-17T08:05:39.589Z,20.54
2018-07-17T08:08:08.268Z,20.82
2018-07-17T08:10:36.855Z,20.88
2018-07-17T08:13:06.444Z,21.02
2018-07-17T08:15:35.170Z,21.19
2018-07-17T08:18:03.811Z,21.15
2018-07-17T08:20:32.380Z,20.69
2018-07-17T08:23:00.986Z,20.91
2018-07-17T08:25:31.334Z,21.19
2018-07-17T08:27:59.909Z,21.37
2018-07-17T08:30:29.452Z,21.60
2018-07-17T08:32:58.037Z,21.69
2018-07-17T08:35:26.640Z,21.85
2018-07-17T08:37:55.213Z,21.82
2018-07-17T08:40:23.905Z,21.83
2018-07-17T08:42:52.590Z,21.93
2018-07-17T08:45:21.571Z,21.98
2018-07-17T08:47:50.135Z,21.93
2018-07-17T08:50:18.833Z,22.09
2018-07-17T08:52:47.374Z,22.08
2018-07-17T08:55:19.122Z,21.95
2018-07-17T08:57:47.760Z,22.14
2018-07-17T09:00:16.340Z,22.06
2018-07-17T09:02:45.216Z,21.84
2018-07-17T09:05:16.139Z,21.79
2018-07-17T09:07:44.761Z,21.53
2018-07-17T09:10:13.309Z,21.39
2018-07-17T09:12:41.848Z,21.59
2018-07-17T09:15:14.417Z,21.54
2018-07-17T09:17:43.017Z,21.62
2018-07-17T09:20:11.708Z,22.01
2018-07-17T09:22:40.367Z,22.08
2018-07-17T09:25:09.054Z,22.04
2018-07-17T09:27:37.612Z,22.21
2018-07-17T09:30:06.872Z,22.08
2018-07-17T09:32:35.456Z,22.18
2018-07-17T09:35:04.148Z,22.03
2018-07-17T09:37:32.726Z,21.94
2018-07-17T09:40:01.693Z,22.14
2018-07-17T09:42:30.298Z,22.22
2018-07-17T09:44:58.914Z,22.44
2018-07-17T09:47:27.507Z,22.91
2018-07-17T09:49:56.064Z,23.04
2018-07-17T09:52:24.643Z,23.28
2018-07-17T09:54:53.191Z,23.62
2018-07-17T09:57:21.895Z,23.68
2018-07-17T09:59:50.460Z,23.26
2018-07-17T10:02:24.276Z,23.71
2018-07-17T10:04:53.682Z,23.78
2018-07-17T10:07:23.043Z,23.58
2018-07-17T10:09:52.654Z,23.72
2018-07-17T10:12:21.616Z,23.54
2018-07-17T10:14:50.183Z,23.08
2018-07-17T10:17:18.743Z,23.33
2018-07-17T10:19:47.356Z,23.72
2018-07-17T10:22:15.959Z,23.68
2018-07-17T10:24:44.896Z,23.63
2018-07-17T10:27:14.080Z,23.95
2018-07-17T10:29:43.054Z,24.09
2018-07-17T10:32:11.851Z,24.07
2018-07-17T10:34:40.417Z,24.41
2018-07-17T10:37:10.600Z,24.40
2018-07-17T10:39:39.197Z,24.47
2018-07-17T10:42:07.814Z,24.71
2018-07-17T10:44:36.398Z,24.92
2018-07-17T10:47:04.992Z,25.27
2018-07-17T10:49:34.154Z,25.66
2018-07-17T10:52:02.775Z,25.64
2018-07-17T10:54:31.315Z,25.88
2018-07-17T10:56:59.909Z,25.93
2018-07-17T10:59:28.828Z,25.68
2018-07-17T11:01:57.398Z,25.76
2018-07-17T11:04:26.115Z,25.88
2018-07-17T11:06:54.724Z,25.07
2018-07-17T11:09:23.312Z,24.95
2018-07-17T11:11:51.989Z,25.37
2018-07-17T11:14:20.652Z,25.56
2018-07-17T11:16:49.279Z,25.91
2018-07-17T11:19:18.165Z,25.47
2018-07-17T11:21:46.748Z,24.86
2018-07-17T11:24:15.464Z,24.72
2018-07-17T11:26:44.016Z,24.86
2018-07-17T11:29:15.747Z,24.88
2018-07-17T11:31:44.280Z,24.63
2018-07-17T11:34:13.127Z,24.45
2018-07-17T11:36:41.943Z,24.75
2018-07-17T11:39:10.824Z,25.17
2018-07-17T11:41:39.631Z,25.39
2018-07-17T11:44:08.236Z,25.49
2018-07-17T11:46:36.823Z,25.83
2018-07-17T11:49:05.799Z,25.73
2018-07-17T11:51:34.402Z,26.03
2018-07-17T11:54:02.975Z,25.78
2018-07-17T11:56:31.589Z,25.69
2018-07-17T11:59:00.189Z,25.27
2018-07-17T12:01:28.717Z,25.45
2018-07-17T12:03:57.272Z,25.24
2018-07-17T12:06:26.012Z,25.30
2018-07-17T12:08:55.099Z,25.47
2018-07-17T12:11:36.786Z,24.94
2018-07-17T12:14:05.444Z,25.03
2018-07-17T12:16:34.812Z,25.05
2018-07-17T12:19:03.426Z,25.30
2018-07-17T12:21:32.032Z,25.42
2018-07-17T12:24:00.663Z,25.23
2018-07-17T12:26:29.295Z,25.37
2018-07-17T12:28:57.853Z,25.61
2018-07-17T12:31:26.759Z,25.60
2018-07-17T12:33:55.438Z,26.00
2018-07-17T12:36:24.300Z,26.17
2018-07-17T12:38:52.952Z,26.41
2018-07-17T12:41:21.789Z,26.57
2018-07-17T12:43:50.357Z,26.86
2018-07-17T12:46:20.136Z,26.71
2018-07-17T12:48:48.736Z,26.33
2018-07-17T12:51:17.396Z,26.38
2018-07-17T12:53:46.229Z,26.31
2018-07-17T12:56:14.844Z,26.66
2018-07-17T12:58:43.488Z,26.34
2018-07-17T13:01:12.070Z,26.08
2018-07-17T13:03:40.704Z,26.41
2018-07-17T13:06:09.299Z,26.55
2018-07-17T13:08:37.895Z,26.71
2018-07-17T13:11:06.575Z,26.82
2018-07-17T13:13:35.151Z,26.36
2018-07-17T13:16:03.742Z,26.33
2018-07-17T13:18:32.284Z,26.13
2018-07-17T13:21:00.910Z,26.26
2018-07-17T13:23:29.459Z,26.19
2018-07-17T13:25:58.219Z,26.14
2018-07-17T13:28:26.771Z,26.56
2018-07-17T13:30:55.423Z,26.71
2018-07-17T13:33:24.550Z,26.69
2018-07-17T13:35:53.130Z,26.81
2018-07-17T13:38:21.665Z,26.80
2018-07-17T13:40:50.252Z,26.63
2018-07-17T13:43:19.326Z,27.01
2018-07-17T13:45:48.163Z,27.15
2018-07-17T13:48:16.829Z,27.29
2018-07-17T13:50:45.392Z,27.23
2018-07-17T13:53:14.369Z,27.58
2018-07-17T13:55:42.986Z,27.32
2018-07-17T13:58:11.741Z,27.00
2018-07-17T14:00:40.626Z,26.87
2018-07-17T14:03:11.791Z,27.06
2018-07-17T14:05:40.979Z,27.50
2018-07-17T14:08:09.607Z,27.41
2018-07-17T14:10:39.182Z,27.77
2018-07-17T14:13:08.669Z,27.44
2018-07-17T14:15:37.368Z,27.34
2018-07-17T14:18:06.941Z,27.56
2018-07-17T14:20:35.524Z,27.42
2018-07-17T14:23:04.148Z,27.52
2018-07-17T14:25:33.141Z,27.17
2018-07-17T14:28:01.826Z,27.01
2018-07-17T14:30:30.395Z,27.05
2018-07-17T14:32:59.063Z,27.16
2018-07-17T14:35:27.826Z,27.24
2018-07-17T14:37:56.402Z,27.47
2018-07-17T14:40:25.024Z,27.67
2018-07-17T14:42:53.604Z,27.45
2018-07-17T14:45:22.203Z,27.35
2018-07-17T14:47:50.825Z,27.30
2018-07-17T14:50:19.433Z,27.16
2018-07-17T14:52:47.995Z,27.11
2018-07-17T14:55:17.351Z,27.11
2018-07-17T14:57:45.903Z,27.06
2018-07-17T15:00:14.517Z,26.90
2018-07-17T15:02:43.224Z,26.92
2018-07-17T15:05:12.807Z,26.89
2018-07-17T15:07:41.529Z,26.95
2018-07-17T15:10:10.504Z,26.92
2018-07-17T15:12:39.091Z,26.82
2018-07-17T15:15:08.005Z,27.04
2018-07-17T15:17:36.605Z,27.33
2018-07-17T15:20:05.502Z,27.09
2018-07-17T15:22:34.092Z,27.17
2018-07-17T15:25:02.766Z,26.53
2018-07-17T15:27:31.307Z,26.53
2018-07-17T15:29:59.856Z,26.83
2018-07-17T15:32:28.424Z,26.96
2018-07-17T15:34:56.992Z,27.21
2018-07-17T15:37:25.611Z,27.33
2018-07-17T15:39:54.194Z,27.12
2018-07-17T15:42:22.989Z,27.17
2018-07-17T15:44:51.554Z,27.19
2018-07-17T15:47:20.132Z,27.03
2018-07-17T15:49:48.687Z,26.87
2018-07-17T15:52:17.548Z,26.67
2018-07-17T15:54:46.239Z,26.95
2018-07-17T15:57:14.894Z,26.50
2018-07-17T15:59:43.487Z,26.54
2018-07-17T16:02:12.052Z,26.66
2018-07-17T16:04:41.491Z,26.58
2018-07-17T16:07:10.097Z,26.56
2018-07-17T16:09:38.692Z,26.70
2018-07-17T16:12:07.273Z,26.86
2018-07-17T16:14:35.851Z,26.75
2018-07-17T16:17:11.085Z,26.92
2018-07-17T16:19:39.679Z,26.97
2018-07-17T16:22:08.650Z,26.71
2018-07-17T16:24:37.403Z,26.77
2018-07-17T16:27:06.232Z,26.89
2018-07-17T16:29:34.898Z,26.85
2018-07-17T16:32:03.599Z,27.26
2018-07-17T16:34:32.176Z,27.04
2018-07-17T16:37:00.808Z,26.91
2018-07-17T16:39:29.388Z,27.18
2018-07-17T16:41:57.997Z,27.07
2018-07-17T16:44:26.594Z,27.12
2018-07-17T16:46:55.159Z,27.17
2018-07-17T16:49:23.875Z,27.22
2018-07-17T16:51:52.488Z,27.14
2018-07-17T16:54:21.281Z,27.07
2018-07-17T16:56:49.903Z,27.15
2018-07-17T16:59:18.472Z,26.96
2018-07-17T17:01:47.188Z,26.93
2018-07-17T17:04:15.918Z,26.98
2018-07-17T17:06:44.640Z,26.89
2018-07-17T17:09:13.604Z,26.83
2018-07-17T17:11:42.653Z,26.71
2018-07-17T17:14:11.415Z,26.45
2018-07-17T17:16:40.334Z,26.42
2018-07-17T17:19:08.988Z,26.36
2018-07-17T17:21:37.871Z,26.23
2018-07-17T17:24:06.675Z,26.16
2018-07-17T17:26:35.216Z,26.01
2018-07-17T17:29:03.905Z,25.72
2018-07-17T17:31:32.515Z,25.64
2018-07-17T17:34:01.076Z,25.59
2018-07-17T17:36:29.678Z,25.56
2018-07-17T17:38:58.272Z,25.48
2018-07-17T17:41:26.899Z,25.42
2018-07-17T17:43:55.440Z,25.42
2018-07-17T17:46:24.068Z,25.33
2018-07-17T17:48:52.592Z,25.23
2018-07-17T17:51:21.301Z,25.20
2018-07-17T17:53:49.921Z,25.14
2018-07-17T17:56:18.480Z,24.95
2018-07-17T17:58:47.078Z,24.81
2018-07-17T18:01:15.653Z,24.77
2018-07-17T18:03:44.423Z,24.79
2018-07-17T18:06:13.845Z,24.70
2018-07-17T18:08:42.560Z,24.60
2018-07-17T18:11:11.319Z,24.58
2018-07-17T18:13:39.869Z,24.51
2018-07-17T18:16:08.512Z,24.45
2018-07-17T18:18:37.160Z,24.42
2018-07-17T18:21:08.617Z,24.41
2018-07-17T18:23:37.409Z,24.35
2018-07-17T18:26:05.987Z,24.26
2018-07-17T18:28:34.676Z,24.16
2018-07-17T18:31:03.257Z,24.12
2018-07-17T18:33:31.879Z,23.96
2018-07-17T18:36:00.549Z,23.92
2018-07-17T18:38:29.124Z,23.91
2018-07-17T18:40:57.678Z,23.80
2018-07-17T18:43:26.252Z,23.71
2018-07-17T18:45:54.889Z,23.68
2018-07-17T18:48:23.560Z,23.58
2018-07-17T18:50:52.132Z,23.42
2018-07-17T18:53:20.704Z,23.38
2018-07-17T18:55:49.507Z,23.32
2018-07-17T18:58:18.132Z,23.29
2018-07-17T19:00:46.682Z,23.21
2018-07-17T19:03:15.236Z,23.18
2018-07-17T19:05:43.908Z,23.13
2018-07-17T19:08:12.477Z,22.99
2018-07-17T19:10:41.063Z,22.94
2018-07-17T19:13:09.647Z,22.78
2018-07-17T19:15:38.405Z,22.62
2018-07-17T19:18:07.032Z,22.68
2018-07-17T19:20:35.607Z,22.48
2018-07-17T19:23:04.278Z,22.37
2018-07-17T19:25:33.000Z,22.23
2018-07-17T19:28:01.604Z,22.23
2018-07-17T19:30:30.227Z,22.14
2018-07-17T19:32:58.835Z,22.11
2018-07-17T19:35:27.754Z,22.03
2018-07-17T19:37:56.422Z,21.94
2018-07-17T19:40:25.086Z,21.87
2018-07-17T19:42:53.906Z,21.85
2018-07-17T19:45:22.569Z,21.81
2018-07-17T19:47:51.125Z,21.85
2018-07-17T19:50:19.716Z,21.75
2018-07-17T19:52:48.352Z,21.71
2018-07-17T19:55:17.112Z,21.69
2018-07-17T19:57:45.711Z,21.62
2018-07-17T20:00:14.437Z,21.60
2018-07-17T20:02:43.084Z,21.36
2018-07-17T20:05:11.720Z,21.34
2018-07-17T20:07:41.289Z,21.17
2018-07-17T20:10:09.857Z,21.07
2018-07-17T20:12:38.424Z,21.11
2018-07-17T20:15:07.076Z,21.18
2018-07-17T20:17:35.662Z,21.09
2018-07-17T20:20:04.268Z,21.16
2018-07-17T20:22:32.832Z,21.18
2018-07-17T20:25:01.396Z,21.10
2018-07-17T20:27:29.992Z,21.12
2018-07-17T20:29:58.532Z,21.20
2018-07-17T20:32:27.111Z,21.27
2018-07-17T20:34:55.700Z,21.28
2018-07-17T20:37:24.281Z,21.34
2018-07-17T20:39:52.840Z,21.37
2018-07-17T20:42:21.581Z,21.38
2018-07-17T20:44:50.156Z,21.29
2018-07-17T20:47:18.851Z,21.44
2018-07-17T20:49:47.453Z,21.47
2018-07-17T20:52:16.195Z,21.50
2018-07-17T20:54:44.955Z,21.50
2018-07-17T20:57:14.545Z,21.55
2018-07-17T20:59:43.169Z,21.36
2018-07-17T21:02:11.972Z,21.29
2018-07-17T21:04:40.564Z,21.34
2018-07-17T21:07:09.306Z,21.33
2018-07-17T21:09:38.861Z,21.31
2018-07-17T21:12:07.448Z,21.23
2018-07-17T21:14:36.033Z,21.48
2018-07-17T21:17:04.700Z,21.59
2018-07-17T21:19:33.306Z,21.47
2018-07-17T21:22:01.915Z,21.34
2018-07-17T21:24:30.666Z,21.36
2018-07-17T21:26:59.242Z,21.35
2018-07-17T21:29:27.852Z,21.35
2018-07-17T21:31:56.407Z,21.28
2018-07-17T21:34:24.959Z,21.47
2018-07-17T21:36:53.516Z,21.45
2018-07-17T21:39:22.165Z,21.41
2018-07-17T21:41:50.786Z,21.43
2018-07-17T21:44:20.035Z,21.35
2018-07-17T21:46:48.628Z,21.31
2018-07-17T21:49:19.315Z,21.36
2018-07-17T21:51:47.901Z,21.34
2018-07-17T21:54:16.568Z,21.43
2018-07-17T21:56:45.237Z,21.55
2018-07-17T21:59:13.825Z,21.66
2018-07-17T22:01:42.378Z,21.53
2018-07-17T22:04:11.311Z,21.47
2018-07-17T22:06:40.687Z,21.65
2018-07-17T22:09:16.745Z,21.72
2018-07-17T22:11:45.281Z,21.67
2018-07-17T22:14:13.872Z,21.66
2018-07-17T22:16:44.321Z,21.61
2018-07-17T22:19:17.985Z,21.64
2018-07-17T22:21:46.664Z,21.48
2018-07-17T22:24:15.219Z,21.65
2018-07-17T22:26:44.826Z,21.66
2018-07-17T22:29:13.865Z,21.66
2018-07-17T22:31:42.459Z,21.63
2018-07-17T22:34:11.023Z,21.48
2018-07-17T22:36:39.760Z,21.56
2018-07-17T22:39:09.387Z,21.55
2018-07-17T22:41:38.134Z,21.59
2018-07-17T22:44:07.211Z,21.63
2018-07-17T22:46:35.791Z,21.44
2018-07-17T22:49:04.500Z,21.38
2018-07-17T22:51:33.090Z,21.35
2018-07-17T22:54:01.629Z,21.36
2018-07-17T22:56:30.209Z,21.37
2018-07-17T22:58:58.766Z,21.38
2018-07-17T23:01:27.352Z,21.36
2018-07-17T23:03:55.977Z,21.29
2018-07-17T23:06:24.569Z,21.39
2018-07-17T23:08:53.168Z,21.26
2018-07-17T23:11:22.055Z,21.27
2018-07-17T23:13:50.668Z,21.14
2018-07-17T23:16:19.855Z,21.09
2018-07-17T23:18:48.521Z,21.19
2018-07-17T23:21:17.189Z,21.14
2018-07-17T23:23:45.737Z,21.23
2018-07-17T23:26:14.314Z,21.13
2018-07-17T23:28:42.959Z,21.09
2018-07-17T23:31:11.739Z,20.97
2018-07-17T23:33:40.320Z,21.05
2018-07-17T23:36:09.175Z,20.96
2018-07-17T23:38:37.885Z,20.73
2018-07-17T23:41:06.550Z,20.74
2018-07-17T23:43:35.132Z,20.75
2018-07-17T23:46:03.743Z,20.68
2018-07-17T23:48:32.297Z,20.85
2018-07-17T23:51:00.832Z,20.83
2018-07-17T23:53:29.968Z,20.63
2018-07-17T23:55:58.543Z,20.69
2018-07-17T23:58:27.180Z,20.63
